sensor_id;sensor_type;location;lat;lon;timestamp;P1;durP1;ratioP1;P2;durP2;ratioP2
35634;SDS011;21757;43.610;1.440;2023-02-13T00:00:01;41.38;;;26.00;;
35634;SDS011;21757;43.610;1.440;2023-02-13T00:02:34;39.05;;;25.88;;
35634;SDS011;21757;43.610;1.440;2023-02-13T00:05:00;43.45;;;25.95;;
35634;SDS011;21757;43.610;1.440;2023-02-13T00:07:26;41.67;;;26.05;;
35634;SDS011;21757;43.610;1.440;2023-02-13T00:09:51;41.78;;;26.48;;
35634;SDS011;21757;43.610;1.440;2023-02-13T00:12:17;37.33;;;25.27;;
35634;SDS011;21757;43.610;1.440;2023-02-13T00:14:43;41.40;;;25.77;;
35634;SDS011;21757;43.610;1.440;2023-02-13T00:17:08;36.10;;;24.73;;
35634;SDS011;21757;43.610;1.440;2023-02-13T00:19:34;40.60;;;26.70;;
35634;SDS011;21757;43.610;1.440;2023-02-13T00:22:00;39.90;;;26.23;;
35634;SDS011;21757;43.610;1.440;2023-02-13T00:24:25;40.85;;;25.90;;
35634;SDS011;21757;43.610;1.440;2023-02-13T00:26:51;39.33;;;25.63;;
35634;SDS011;21757;43.610;1.440;2023-02-13T00:29:17;39.78;;;24.52;;
35634;SDS011;21757;43.610;1.440;2023-02-13T00:31:43;38.67;;;25.38;;
35634;SDS011;21757;43.610;1.440;2023-02-13T00:34:08;39.92;;;25.40;;
35634;SDS011;21757;43.610;1.440;2023-02-13T00:36:34;37.13;;;25.25;;
35634;SDS011;21757;43.610;1.440;2023-02-13T00:39:00;36.75;;;24.95;;
35634;SDS011;21757;43.610;1.440;2023-02-13T00:41:25;42.85;;;26.48;;
35634;SDS011;21757;43.610;1.440;2023-02-13T00:43:51;39.55;;;25.63;;
35634;SDS011;21757;43.610;1.440;2023-02-13T00:46:17;37.58;;;25.83;;
35634;SDS011;21757;43.610;1.440;2023-02-13T00:48:43;42.75;;;25.65;;
35634;SDS011;21757;43.610;1.440;2023-02-13T00:51:09;40.95;;;26.52;;
35634;SDS011;21757;43.610;1.440;2023-02-13T00:53:35;40.42;;;26.08;;
35634;SDS011;21757;43.610;1.440;2023-02-13T00:56:03;41.75;;;27.20;;
35634;SDS011;21757;43.610;1.440;2023-02-13T00:58:30;43.33;;;25.42;;
35634;SDS011;21757;43.610;1.440;2023-02-13T01:00:56;38.17;;;26.63;;
35634;SDS011;21757;43.610;1.440;2023-02-13T01:03:22;40.47;;;25.73;;
35634;SDS011;21757;43.610;1.440;2023-02-13T01:05:48;38.88;;;25.60;;
35634;SDS011;21757;43.610;1.440;2023-02-13T01:08:15;40.90;;;26.80;;
35634;SDS011;21757;43.610;1.440;2023-02-13T01:10:42;38.92;;;26.67;;
35634;SDS011;21757;43.610;1.440;2023-02-13T01:13:10;44.03;;;28.10;;
35634;SDS011;21757;43.610;1.440;2023-02-13T01:15:37;47.63;;;28.48;;
35634;SDS011;21757;43.610;1.440;2023-02-13T01:18:03;42.78;;;28.05;;
35634;SDS011;21757;43.610;1.440;2023-02-13T01:20:29;42.95;;;27.33;;
35634;SDS011;21757;43.610;1.440;2023-02-13T01:22:55;43.17;;;28.02;;
35634;SDS011;21757;43.610;1.440;2023-02-13T01:25:22;43.58;;;28.25;;
35634;SDS011;21757;43.610;1.440;2023-02-13T01:27:47;43.65;;;27.30;;
35634;SDS011;21757;43.610;1.440;2023-02-13T01:32:41;41.20;;;26.10;;
35634;SDS011;21757;43.610;1.440;2023-02-13T01:35:08;43.80;;;26.73;;
35634;SDS011;21757;43.610;1.440;2023-02-13T01:37:35;37.83;;;25.65;;
35634;SDS011;21757;43.610;1.440;2023-02-13T01:40:02;46.00;;;26.42;;
35634;SDS011;21757;43.610;1.440;2023-02-13T01:42:29;41.67;;;25.10;;
35634;SDS011;21757;43.610;1.440;2023-02-13T01:44:56;39.88;;;24.50;;
35634;SDS011;21757;43.610;1.440;2023-02-13T01:47:28;42.05;;;24.73;;
35634;SDS011;21757;43.610;1.440;2023-02-13T01:50:16;37.22;;;24.73;;
35634;SDS011;21757;43.610;1.440;2023-02-13T01:53:04;42.80;;;25.05;;
35634;SDS011;21757;43.610;1.440;2023-02-13T01:55:54;38.00;;;23.92;;
35634;SDS011;21757;43.610;1.440;2023-02-13T01:58:30;39.00;;;24.08;;
35634;SDS011;21757;43.610;1.440;2023-02-13T02:00:58;42.92;;;24.65;;
35634;SDS011;21757;43.610;1.440;2023-02-13T02:04:07;39.53;;;24.27;;
35634;SDS011;21757;43.610;1.440;2023-02-13T02:06:22;39.38;;;23.73;;
35634;SDS011;21757;43.610;1.440;2023-02-13T02:08:55;39.67;;;24.20;;
35634;SDS011;21757;43.610;1.440;2023-02-13T02:14:06;39.67;;;23.85;;
35634;SDS011;21757;43.610;1.440;2023-02-13T02:16:32;38.25;;;24.65;;
35634;SDS011;21757;43.610;1.440;2023-02-13T02:19:00;36.55;;;25.52;;
35634;SDS011;21757;43.610;1.440;2023-02-13T02:21:44;39.65;;;24.55;;
35634;SDS011;21757;43.610;1.440;2023-02-13T02:24:37;44.67;;;25.80;;
35634;SDS011;21757;43.610;1.440;2023-02-13T02:30:15;41.13;;;26.23;;
35634;SDS011;21757;43.610;1.440;2023-02-13T02:32:54;38.85;;;26.52;;
35634;SDS011;21757;43.610;1.440;2023-02-13T02:35:53;42.90;;;26.70;;
35634;SDS011;21757;43.610;1.440;2023-02-13T02:38:57;43.00;;;26.58;;
35634;SDS011;21757;43.610;1.440;2023-02-13T02:44:24;36.15;;;20.77;;
35634;SDS011;21757;43.610;1.440;2023-02-13T02:50:05;47.28;;;27.40;;
35634;SDS011;21757;43.610;1.440;2023-02-13T02:57:45;47.85;;;28.65;;
35634;SDS011;21757;43.610;1.440;2023-02-13T03:00:34;45.08;;;28.90;;
35634;SDS011;21757;43.610;1.440;2023-02-13T03:03:22;44.60;;;28.05;;
35634;SDS011;21757;43.610;1.440;2023-02-13T03:06:12;46.75;;;28.92;;
35634;SDS011;21757;43.610;1.440;2023-02-13T03:09:01;45.92;;;29.30;;
35634;SDS011;21757;43.610;1.440;2023-02-13T03:11:49;43.78;;;27.65;;
35634;SDS011;21757;43.610;1.440;2023-02-13T03:14:35;40.10;;;27.63;;
35634;SDS011;21757;43.610;1.440;2023-02-13T03:17:01;47.28;;;29.23;;
35634;SDS011;21757;43.610;1.440;2023-02-13T03:23:10;44.28;;;25.10;;
35634;SDS011;21757;43.610;1.440;2023-02-13T03:28:16;38.67;;;23.65;;
35634;SDS011;21757;43.610;1.440;2023-02-13T03:31:32;35.17;;;22.70;;
35634;SDS011;21757;43.610;1.440;2023-02-13T03:34:16;36.80;;;20.52;;
35634;SDS011;21757;43.610;1.440;2023-02-13T03:36:48;37.50;;;22.45;;
35634;SDS011;21757;43.610;1.440;2023-02-13T03:40:01;33.80;;;20.60;;
35634;SDS011;21757;43.610;1.440;2023-02-13T03:45:37;33.13;;;20.23;;
35634;SDS011;21757;43.610;1.440;2023-02-13T03:51:23;32.97;;;20.50;;
35634;SDS011;21757;43.610;1.440;2023-02-13T03:53:55;30.40;;;20.38;;
35634;SDS011;21757;43.610;1.440;2023-02-13T03:56:24;33.58;;;20.48;;
35634;SDS011;21757;43.610;1.440;2023-02-13T03:59:15;30.33;;;20.38;;
35634;SDS011;21757;43.610;1.440;2023-02-13T04:02:09;33.88;;;20.70;;
35634;SDS011;21757;43.610;1.440;2023-02-13T04:07:15;31.35;;;21.75;;
35634;SDS011;21757;43.610;1.440;2023-02-13T04:09:56;31.80;;;21.20;;
35634;SDS011;21757;43.610;1.440;2023-02-13T04:15:18;36.90;;;21.40;;
35634;SDS011;21757;43.610;1.440;2023-02-13T04:18:10;33.47;;;20.85;;
35634;SDS011;21757;43.610;1.440;2023-02-13T04:20:41;32.05;;;20.98;;
35634;SDS011;21757;43.610;1.440;2023-02-13T04:23:08;32.20;;;20.77;;
35634;SDS011;21757;43.610;1.440;2023-02-13T04:25:36;34.67;;;21.65;;
35634;SDS011;21757;43.610;1.440;2023-02-13T04:28:04;32.85;;;22.20;;
35634;SDS011;21757;43.610;1.440;2023-02-13T04:30:31;35.53;;;21.20;;
35634;SDS011;21757;43.610;1.440;2023-02-13T04:32:57;36.13;;;21.55;;
35634;SDS011;21757;43.610;1.440;2023-02-13T04:35:22;32.88;;;21.40;;
35634;SDS011;21757;43.610;1.440;2023-02-13T04:37:48;32.53;;;21.50;;
35634;SDS011;21757;43.610;1.440;2023-02-13T04:40:14;34.90;;;22.75;;
35634;SDS011;21757;43.610;1.440;2023-02-13T04:42:39;43.35;;;21.58;;
35634;SDS011;21757;43.610;1.440;2023-02-13T04:45:05;33.70;;;21.05;;
35634;SDS011;21757;43.610;1.440;2023-02-13T04:47:31;34.72;;;20.80;;
35634;SDS011;21757;43.610;1.440;2023-02-13T04:49:57;32.55;;;21.42;;
35634;SDS011;21757;43.610;1.440;2023-02-13T04:52:22;32.58;;;20.73;;
35634;SDS011;21757;43.610;1.440;2023-02-13T04:54:48;35.38;;;20.98;;
35634;SDS011;21757;43.610;1.440;2023-02-13T04:57:14;35.97;;;20.77;;
35634;SDS011;21757;43.610;1.440;2023-02-13T04:59:40;31.80;;;20.52;;
35634;SDS011;21757;43.610;1.440;2023-02-13T05:02:05;31.42;;;20.20;;
35634;SDS011;21757;43.610;1.440;2023-02-13T05:04:31;31.33;;;20.42;;
35634;SDS011;21757;43.610;1.440;2023-02-13T05:06:57;40.63;;;22.95;;
35634;SDS011;21757;43.610;1.440;2023-02-13T05:09:23;39.13;;;21.50;;
35634;SDS011;21757;43.610;1.440;2023-02-13T05:11:52;30.25;;;19.85;;
35634;SDS011;21757;43.610;1.440;2023-02-13T05:14:18;34.35;;;21.40;;
35634;SDS011;21757;43.610;1.440;2023-02-13T05:16:44;34.17;;;21.67;;
35634;SDS011;21757;43.610;1.440;2023-02-13T05:19:10;36.33;;;21.13;;
35634;SDS011;21757;43.610;1.440;2023-02-13T05:21:36;34.92;;;21.20;;
35634;SDS011;21757;43.610;1.440;2023-02-13T05:24:20;34.03;;;20.83;;
35634;SDS011;21757;43.610;1.440;2023-02-13T05:26:46;32.05;;;20.98;;
35634;SDS011;21757;43.610;1.440;2023-02-13T05:29:11;33.20;;;20.83;;
35634;SDS011;21757;43.610;1.440;2023-02-13T05:31:43;32.85;;;20.98;;
35634;SDS011;21757;43.610;1.440;2023-02-13T05:34:23;32.53;;;20.58;;
35634;SDS011;21757;43.610;1.440;2023-02-13T05:36:50;36.15;;;22.13;;
35634;SDS011;21757;43.610;1.440;2023-02-13T05:39:16;34.05;;;21.55;;
35634;SDS011;21757;43.610;1.440;2023-02-13T05:41:42;35.83;;;21.80;;
35634;SDS011;21757;43.610;1.440;2023-02-13T05:44:09;39.08;;;22.05;;
35634;SDS011;21757;43.610;1.440;2023-02-13T05:46:36;31.98;;;21.23;;
35634;SDS011;21757;43.610;1.440;2023-02-13T05:49:02;32.80;;;21.83;;
35634;SDS011;21757;43.610;1.440;2023-02-13T05:51:28;33.35;;;21.88;;
35634;SDS011;21757;43.610;1.440;2023-02-13T05:53:54;35.72;;;23.05;;
35634;SDS011;21757;43.610;1.440;2023-02-13T05:56:20;34.38;;;22.48;;
35634;SDS011;21757;43.610;1.440;2023-02-13T05:58:46;31.75;;;21.95;;
35634;SDS011;21757;43.610;1.440;2023-02-13T06:01:11;35.83;;;23.20;;
35634;SDS011;21757;43.610;1.440;2023-02-13T06:03:37;34.40;;;22.73;;
35634;SDS011;21757;43.610;1.440;2023-02-13T06:06:04;39.35;;;24.20;;
35634;SDS011;21757;43.610;1.440;2023-02-13T06:08:30;45.67;;;28.27;;
35634;SDS011;21757;43.610;1.440;2023-02-13T06:10:55;45.85;;;28.17;;
35634;SDS011;21757;43.610;1.440;2023-02-13T06:13:21;48.95;;;29.67;;
35634;SDS011;21757;43.610;1.440;2023-02-13T06:15:47;47.45;;;30.45;;
35634;SDS011;21757;43.610;1.440;2023-02-13T06:18:14;57.83;;;31.15;;
35634;SDS011;21757;43.610;1.440;2023-02-13T06:20:40;59.72;;;32.88;;
35634;SDS011;21757;43.610;1.440;2023-02-13T06:23:06;61.78;;;33.13;;
35634;SDS011;21757;43.610;1.440;2023-02-13T06:25:35;69.07;;;33.85;;
35634;SDS011;21757;43.610;1.440;2023-02-13T06:28:01;68.10;;;34.45;;
35634;SDS011;21757;43.610;1.440;2023-02-13T06:30:28;67.63;;;34.20;;
35634;SDS011;21757;43.610;1.440;2023-02-13T06:32:54;57.38;;;34.97;;
35634;SDS011;21757;43.610;1.440;2023-02-13T06:35:19;57.95;;;33.58;;
35634;SDS011;21757;43.610;1.440;2023-02-13T06:37:45;54.38;;;33.25;;
35634;SDS011;21757;43.610;1.440;2023-02-13T06:40:13;53.13;;;33.72;;
35634;SDS011;21757;43.610;1.440;2023-02-13T06:42:43;58.13;;;34.08;;
35634;SDS011;21757;43.610;1.440;2023-02-13T06:45:10;53.20;;;33.35;;
35634;SDS011;21757;43.610;1.440;2023-02-13T06:47:43;57.30;;;35.17;;
35634;SDS011;21757;43.610;1.440;2023-02-13T06:50:10;59.72;;;34.83;;
35634;SDS011;21757;43.610;1.440;2023-02-13T06:52:37;55.40;;;33.63;;
35634;SDS011;21757;43.610;1.440;2023-02-13T06:55:03;65.22;;;33.90;;
35634;SDS011;21757;43.610;1.440;2023-02-13T06:57:29;55.95;;;33.13;;
35634;SDS011;21757;43.610;1.440;2023-02-13T06:59:59;55.85;;;32.85;;
35634;SDS011;21757;43.610;1.440;2023-02-13T07:02:27;54.10;;;32.15;;
35634;SDS011;21757;43.610;1.440;2023-02-13T07:04:53;54.30;;;32.60;;
35634;SDS011;21757;43.610;1.440;2023-02-13T07:07:18;54.75;;;33.45;;
35634;SDS011;21757;43.610;1.440;2023-02-13T07:09:50;57.03;;;33.13;;
35634;SDS011;21757;43.610;1.440;2023-02-13T07:12:16;54.22;;;32.90;;
35634;SDS011;21757;43.610;1.440;2023-02-13T07:14:42;55.17;;;33.10;;
35634;SDS011;21757;43.610;1.440;2023-02-13T07:17:07;51.17;;;32.33;;
35634;SDS011;21757;43.610;1.440;2023-02-13T07:19:35;52.50;;;31.95;;
35634;SDS011;21757;43.610;1.440;2023-02-13T07:22:00;50.95;;;31.58;;
35634;SDS011;21757;43.610;1.440;2023-02-13T07:24:26;55.45;;;31.80;;
35634;SDS011;21757;43.610;1.440;2023-02-13T07:26:52;54.78;;;31.98;;
35634;SDS011;21757;43.610;1.440;2023-02-13T07:29:17;61.58;;;33.08;;
35634;SDS011;21757;43.610;1.440;2023-02-13T07:31:43;61.83;;;32.72;;
35634;SDS011;21757;43.610;1.440;2023-02-13T07:34:08;55.80;;;33.03;;
35634;SDS011;21757;43.610;1.440;2023-02-13T07:36:34;55.38;;;33.30;;
35634;SDS011;21757;43.610;1.440;2023-02-13T07:39:00;60.55;;;34.20;;
35634;SDS011;21757;43.610;1.440;2023-02-13T07:41:25;61.15;;;32.88;;
35634;SDS011;21757;43.610;1.440;2023-02-13T07:43:51;62.17;;;33.25;;
35634;SDS011;21757;43.610;1.440;2023-02-13T07:46:18;59.38;;;31.63;;
35634;SDS011;21757;43.610;1.440;2023-02-13T07:48:44;59.72;;;34.17;;
35634;SDS011;21757;43.610;1.440;2023-02-13T07:51:09;60.17;;;33.63;;
35634;SDS011;21757;43.610;1.440;2023-02-13T07:53:35;55.95;;;32.10;;
35634;SDS011;21757;43.610;1.440;2023-02-13T07:56:07;53.53;;;31.73;;
35634;SDS011;21757;43.610;1.440;2023-02-13T07:58:35;57.00;;;31.05;;
35634;SDS011;21757;43.610;1.440;2023-02-13T08:01:08;50.70;;;32.13;;
35634;SDS011;21757;43.610;1.440;2023-02-13T08:03:35;53.30;;;30.42;;
35634;SDS011;21757;43.610;1.440;2023-02-13T08:06:01;52.35;;;31.67;;
35634;SDS011;21757;43.610;1.440;2023-02-13T08:08:27;51.42;;;30.70;;
35634;SDS011;21757;43.610;1.440;2023-02-13T08:10:53;63.72;;;32.78;;
35634;SDS011;21757;43.610;1.440;2023-02-13T08:13:37;63.08;;;31.50;;
35634;SDS011;21757;43.610;1.440;2023-02-13T08:16:04;56.20;;;30.83;;
35634;SDS011;21757;43.610;1.440;2023-02-13T08:18:29;57.38;;;31.10;;
35634;SDS011;21757;43.610;1.440;2023-02-13T08:20:55;59.42;;;31.92;;
35634;SDS011;21757;43.610;1.440;2023-02-13T08:23:21;59.88;;;31.40;;
35634;SDS011;21757;43.610;1.440;2023-02-13T08:25:47;54.92;;;30.50;;
35634;SDS011;21757;43.610;1.440;2023-02-13T08:28:14;50.78;;;31.20;;
35634;SDS011;21757;43.610;1.440;2023-02-13T08:30:40;47.28;;;29.50;;
35634;SDS011;21757;43.610;1.440;2023-02-13T08:33:06;54.72;;;29.27;;
35634;SDS011;21757;43.610;1.440;2023-02-13T08:35:31;44.75;;;30.15;;
35634;SDS011;21757;43.610;1.440;2023-02-13T08:38:01;47.90;;;30.48;;
35634;SDS011;21757;43.610;1.440;2023-02-13T08:40:27;50.17;;;29.25;;
35634;SDS011;21757;43.610;1.440;2023-02-13T08:42:58;47.67;;;29.75;;
35634;SDS011;21757;43.610;1.440;2023-02-13T08:45:27;52.33;;;29.48;;
35634;SDS011;21757;43.610;1.440;2023-02-13T08:47:57;60.47;;;30.52;;
35634;SDS011;21757;43.610;1.440;2023-02-13T08:50:23;56.13;;;30.98;;
35634;SDS011;21757;43.610;1.440;2023-02-13T08:52:50;46.90;;;29.48;;
35634;SDS011;21757;43.610;1.440;2023-02-13T08:55:16;54.72;;;30.77;;
35634;SDS011;21757;43.610;1.440;2023-02-13T08:57:41;54.80;;;31.33;;
35634;SDS011;21757;43.610;1.440;2023-02-13T09:00:07;45.90;;;29.27;;
35634;SDS011;21757;43.610;1.440;2023-02-13T09:02:33;52.83;;;30.00;;
35634;SDS011;21757;43.610;1.440;2023-02-13T09:04:59;46.30;;;30.52;;
35634;SDS011;21757;43.610;1.440;2023-02-13T09:07:25;42.50;;;28.17;;
35634;SDS011;21757;43.610;1.440;2023-02-13T09:09:50;48.30;;;29.42;;
35634;SDS011;21757;43.610;1.440;2023-02-13T09:12:16;46.58;;;29.05;;
35634;SDS011;21757;43.610;1.440;2023-02-13T09:14:42;53.33;;;30.70;;
35634;SDS011;21757;43.610;1.440;2023-02-13T09:17:07;49.70;;;30.17;;
35634;SDS011;21757;43.610;1.440;2023-02-13T09:19:33;46.47;;;28.85;;
35634;SDS011;21757;43.610;1.440;2023-02-13T09:21:58;41.80;;;26.95;;
35634;SDS011;21757;43.610;1.440;2023-02-13T09:24:24;42.38;;;27.38;;
35634;SDS011;21757;43.610;1.440;2023-02-13T09:26:50;40.78;;;26.65;;
35634;SDS011;21757;43.610;1.440;2023-02-13T09:29:21;28.15;;;19.02;;
35634;SDS011;21757;43.610;1.440;2023-02-13T09:31:46;32.88;;;23.75;;
35634;SDS011;21757;43.610;1.440;2023-02-13T09:34:12;36.58;;;25.02;;
35634;SDS011;21757;43.610;1.440;2023-02-13T09:36:38;29.30;;;20.15;;
35634;SDS011;21757;43.610;1.440;2023-02-13T09:39:04;32.00;;;19.95;;
35634;SDS011;21757;43.610;1.440;2023-02-13T09:41:30;27.75;;;18.83;;
35634;SDS011;21757;43.610;1.440;2023-02-13T09:44:01;29.20;;;19.38;;
35634;SDS011;21757;43.610;1.440;2023-02-13T09:50:04;29.17;;;17.10;;
35634;SDS011;21757;43.610;1.440;2023-02-13T09:52:32;22.65;;;16.35;;
35634;SDS011;21757;43.610;1.440;2023-02-13T09:54:59;26.67;;;17.85;;
35634;SDS011;21757;43.610;1.440;2023-02-13T09:57:30;27.80;;;16.60;;
35634;SDS011;21757;43.610;1.440;2023-02-13T10:00:14;24.05;;;15.88;;
35634;SDS011;21757;43.610;1.440;2023-02-13T10:03:04;28.00;;;16.67;;
35634;SDS011;21757;43.610;1.440;2023-02-13T10:06:11;22.83;;;16.42;;
35634;SDS011;21757;43.610;1.440;2023-02-13T10:09:08;19.90;;;15.93;;
35634;SDS011;21757;43.610;1.440;2023-02-13T10:12:03;18.38;;;14.88;;
35634;SDS011;21757;43.610;1.440;2023-02-13T10:17:03;21.45;;;15.63;;
35634;SDS011;21757;43.610;1.440;2023-02-13T10:19:36;24.65;;;15.50;;
35634;SDS011;21757;43.610;1.440;2023-02-13T10:22:16;20.63;;;14.20;;
35634;SDS011;21757;43.610;1.440;2023-02-13T10:27:33;21.90;;;14.52;;
35634;SDS011;21757;43.610;1.440;2023-02-13T10:32:41;26.98;;;15.70;;
35634;SDS011;21757;43.610;1.440;2023-02-13T10:35:43;23.98;;;14.85;;
35634;SDS011;21757;43.610;1.440;2023-02-13T10:38:18;22.48;;;14.55;;
35634;SDS011;21757;43.610;1.440;2023-02-13T10:40:57;17.10;;;13.80;;
35634;SDS011;21757;43.610;1.440;2023-02-13T10:44:04;18.77;;;13.25;;
35634;SDS011;21757;43.610;1.440;2023-02-13T10:52:47;20.70;;;14.10;;
35634;SDS011;21757;43.610;1.440;2023-02-13T11:03:23;19.00;;;13.60;;
35634;SDS011;21757;43.610;1.440;2023-02-13T11:05:51;22.17;;;13.77;;
35634;SDS011;21757;43.610;1.440;2023-02-13T11:08:24;22.17;;;13.85;;
35634;SDS011;21757;43.610;1.440;2023-02-13T11:11:03;20.73;;;14.85;;
35634;SDS011;21757;43.610;1.440;2023-02-13T11:13:49;20.15;;;13.90;;
35634;SDS011;21757;43.610;1.440;2023-02-13T11:16:42;21.27;;;13.98;;
35634;SDS011;21757;43.610;1.440;2023-02-13T11:19:29;19.75;;;13.25;;
35634;SDS011;21757;43.610;1.440;2023-02-13T11:22:04;24.02;;;13.00;;
35634;SDS011;21757;43.610;1.440;2023-02-13T11:24:36;21.88;;;14.38;;
35634;SDS011;21757;43.610;1.440;2023-02-13T11:27:07;25.85;;;15.45;;
35634;SDS011;21757;43.610;1.440;2023-02-13T11:29:50;23.27;;;14.95;;
35634;SDS011;21757;43.610;1.440;2023-02-13T11:32:22;19.38;;;13.55;;
35634;SDS011;21757;43.610;1.440;2023-02-13T11:34:50;18.73;;;12.85;;
35634;SDS011;21757;43.610;1.440;2023-02-13T11:39:53;15.98;;;12.05;;
35634;SDS011;21757;43.610;1.440;2023-02-13T11:42:23;21.00;;;12.70;;
35634;SDS011;21757;43.610;1.440;2023-02-13T11:44:54;18.27;;;12.10;;
35634;SDS011;21757;43.610;1.440;2023-02-13T11:47:34;19.85;;;13.15;;
35634;SDS011;21757;43.610;1.440;2023-02-13T11:50:05;35.25;;;18.60;;
35634;SDS011;21757;43.610;1.440;2023-02-13T11:55:35;14.23;;;11.23;;
35634;SDS011;21757;43.610;1.440;2023-02-13T11:58:20;20.70;;;13.82;;
35634;SDS011;21757;43.610;1.440;2023-02-13T12:00:49;17.38;;;12.88;;
35634;SDS011;21757;43.610;1.440;2023-02-13T12:03:32;19.38;;;12.90;;
35634;SDS011;21757;43.610;1.440;2023-02-13T12:06:02;18.90;;;12.15;;
35634;SDS011;21757;43.610;1.440;2023-02-13T12:08:45;22.15;;;12.02;;
35634;SDS011;21757;43.610;1.440;2023-02-13T12:13:43;15.38;;;10.80;;
35634;SDS011;21757;43.610;1.440;2023-02-13T12:16:16;15.48;;;10.10;;
35634;SDS011;21757;43.610;1.440;2023-02-13T12:19:05;17.42;;;10.52;;
35634;SDS011;21757;43.610;1.440;2023-02-13T12:21:43;17.20;;;10.73;;
35634;SDS011;21757;43.610;1.440;2023-02-13T12:46:19;12.52;;;8.75;;
35634;SDS011;21757;43.610;1.440;2023-02-13T12:49:05;11.57;;;7.97;;
35634;SDS011;21757;43.610;1.440;2023-02-13T12:59:34;13.93;;;8.90;;
35634;SDS011;21757;43.610;1.440;2023-02-13T13:10:45;12.70;;;6.90;;
35634;SDS011;21757;43.610;1.440;2023-02-13T13:13:27;10.65;;;6.95;;
35634;SDS011;21757;43.610;1.440;2023-02-13T13:26:47;10.88;;;6.80;;
35634;SDS011;21757;43.610;1.440;2023-02-13T13:29:19;12.13;;;6.75;;
35634;SDS011;21757;43.610;1.440;2023-02-13T13:31:56;8.63;;;7.13;;
35634;SDS011;21757;43.610;1.440;2023-02-13T13:34:26;13.43;;;7.47;;
35634;SDS011;21757;43.610;1.440;2023-02-13T13:36:59;9.98;;;7.05;;
35634;SDS011;21757;43.610;1.440;2023-02-13T13:42:44;10.77;;;6.53;;
35634;SDS011;21757;43.610;1.440;2023-02-13T13:45:46;10.18;;;7.25;;
35634;SDS011;21757;43.610;1.440;2023-02-13T13:51:19;12.68;;;7.88;;
35634;SDS011;21757;43.610;1.440;2023-02-13T13:59:17;14.35;;;8.43;;
35634;SDS011;21757;43.610;1.440;2023-02-13T14:01:44;11.27;;;7.45;;
35634;SDS011;21757;43.610;1.440;2023-02-13T14:17:58;12.85;;;8.10;;
35634;SDS011;21757;43.610;1.440;2023-02-13T14:23:51;14.07;;;9.93;;
35634;SDS011;21757;43.610;1.440;2023-02-13T14:33:55;13.13;;;7.95;;
35634;SDS011;21757;43.610;1.440;2023-02-13T14:36:27;13.15;;;7.97;;
35634;SDS011;21757;43.610;1.440;2023-02-13T14:39:02;14.27;;;8.80;;
35634;SDS011;21757;43.610;1.440;2023-02-13T14:41:41;12.90;;;8.98;;
35634;SDS011;21757;43.610;1.440;2023-02-13T14:46:55;13.38;;;9.73;;
35634;SDS011;21757;43.610;1.440;2023-02-13T14:49:23;11.23;;;8.75;;
35634;SDS011;21757;43.610;1.440;2023-02-13T14:51:56;11.80;;;8.52;;
35634;SDS011;21757;43.610;1.440;2023-02-13T14:59:49;15.77;;;9.98;;
35634;SDS011;21757;43.610;1.440;2023-02-13T15:04:58;13.55;;;10.32;;
35634;SDS011;21757;43.610;1.440;2023-02-13T15:07:29;16.15;;;10.13;;
35634;SDS011;21757;43.610;1.440;2023-02-13T15:09:59;15.10;;;10.20;;
35634;SDS011;21757;43.610;1.440;2023-02-13T15:12:35;15.45;;;10.15;;
35634;SDS011;21757;43.610;1.440;2023-02-13T15:15:04;12.68;;;9.82;;
35634;SDS011;21757;43.610;1.440;2023-02-13T15:17:53;15.82;;;10.10;;
35634;SDS011;21757;43.610;1.440;2023-02-13T15:20:32;13.52;;;9.35;;
35634;SDS011;21757;43.610;1.440;2023-02-13T15:22:58;14.50;;;10.02;;
35634;SDS011;21757;43.610;1.440;2023-02-13T15:27:57;15.07;;;11.32;;
35634;SDS011;21757;43.610;1.440;2023-02-13T15:30:29;14.95;;;10.15;;
35634;SDS011;21757;43.610;1.440;2023-02-13T15:32:57;15.70;;;9.40;;
35634;SDS011;21757;43.610;1.440;2023-02-13T15:35:25;15.68;;;9.48;;
35634;SDS011;21757;43.610;1.440;2023-02-13T15:37:54;13.60;;;9.63;;
35634;SDS011;21757;43.610;1.440;2023-02-13T15:42:51;16.58;;;9.18;;
35634;SDS011;21757;43.610;1.440;2023-02-13T15:45:18;19.92;;;9.20;;
35634;SDS011;21757;43.610;1.440;2023-02-13T15:47:45;15.45;;;8.95;;
35634;SDS011;21757;43.610;1.440;2023-02-13T15:50:33;14.13;;;8.98;;
35634;SDS011;21757;43.610;1.440;2023-02-13T15:52:59;10.88;;;8.35;;
35634;SDS011;21757;43.610;1.440;2023-02-13T15:55:29;14.23;;;8.55;;
35634;SDS011;21757;43.610;1.440;2023-02-13T16:00:36;17.38;;;8.43;;
35634;SDS011;21757;43.610;1.440;2023-02-13T16:03:07;10.63;;;8.32;;
35634;SDS011;21757;43.610;1.440;2023-02-13T16:05:39;12.68;;;8.45;;
35634;SDS011;21757;43.610;1.440;2023-02-13T16:13:53;11.50;;;8.35;;
35634;SDS011;21757;43.610;1.440;2023-02-13T16:16:23;16.00;;;9.00;;
35634;SDS011;21757;43.610;1.440;2023-02-13T16:18:51;12.93;;;8.93;;
35634;SDS011;21757;43.610;1.440;2023-02-13T16:21:21;15.75;;;8.43;;
35634;SDS011;21757;43.610;1.440;2023-02-13T16:23:48;11.57;;;7.70;;
35634;SDS011;21757;43.610;1.440;2023-02-13T16:26:15;13.38;;;8.93;;
35634;SDS011;21757;43.610;1.440;2023-02-13T16:28:40;11.07;;;8.05;;
35634;SDS011;21757;43.610;1.440;2023-02-13T16:31:14;13.48;;;8.45;;
35634;SDS011;21757;43.610;1.440;2023-02-13T16:33:41;14.35;;;8.68;;
35634;SDS011;21757;43.610;1.440;2023-02-13T16:41:07;16.02;;;8.77;;
35634;SDS011;21757;43.610;1.440;2023-02-13T16:43:51;10.43;;;6.82;;
35634;SDS011;21757;43.610;1.440;2023-02-13T16:46:28;13.27;;;8.32;;
35634;SDS011;21757;43.610;1.440;2023-02-13T16:54:15;11.40;;;7.63;;
35634;SDS011;21757;43.610;1.440;2023-02-13T16:57:02;12.25;;;8.23;;
35634;SDS011;21757;43.610;1.440;2023-02-13T16:59:50;11.35;;;8.32;;
35634;SDS011;21757;43.610;1.440;2023-02-13T17:05:36;13.55;;;8.82;;
35634;SDS011;21757;43.610;1.440;2023-02-13T17:07:46;11.65;;;8.00;;
35634;SDS011;21757;43.610;1.440;2023-02-13T17:12:45;24.52;;;13.18;;
35634;SDS011;21757;43.610;1.440;2023-02-13T17:15:13;13.18;;;9.23;;
35634;SDS011;21757;43.610;1.440;2023-02-13T17:17:41;16.27;;;9.25;;
35634;SDS011;21757;43.610;1.440;2023-02-13T17:20:08;11.80;;;9.50;;
35634;SDS011;21757;43.610;1.440;2023-02-13T17:22:39;13.10;;;9.43;;
35634;SDS011;21757;43.610;1.440;2023-02-13T17:25:20;12.85;;;9.10;;
35634;SDS011;21757;43.610;1.440;2023-02-13T17:27:53;19.05;;;10.38;;
35634;SDS011;21757;43.610;1.440;2023-02-13T17:30:28;13.70;;;10.07;;
35634;SDS011;21757;43.610;1.440;2023-02-13T17:33:02;16.65;;;10.35;;
35634;SDS011;21757;43.610;1.440;2023-02-13T17:35:29;15.80;;;10.05;;
35634;SDS011;21757;43.610;1.440;2023-02-13T17:37:55;14.88;;;10.05;;
35634;SDS011;21757;43.610;1.440;2023-02-13T17:40:22;16.10;;;10.77;;
35634;SDS011;21757;43.610;1.440;2023-02-13T17:42:50;14.20;;;11.35;;
35634;SDS011;21757;43.610;1.440;2023-02-13T17:45:19;15.20;;;11.38;;
35634;SDS011;21757;43.610;1.440;2023-02-13T17:47:47;16.77;;;12.05;;
35634;SDS011;21757;43.610;1.440;2023-02-13T17:50:14;16.15;;;12.20;;
35634;SDS011;21757;43.610;1.440;2023-02-13T17:52:44;13.47;;;9.30;;
35634;SDS011;21757;43.610;1.440;2023-02-13T17:55:16;18.92;;;12.50;;
35634;SDS011;21757;43.610;1.440;2023-02-13T17:57:48;18.80;;;12.80;;
35634;SDS011;21757;43.610;1.440;2023-02-13T18:00:16;26.33;;;17.48;;
35634;SDS011;21757;43.610;1.440;2023-02-13T18:02:44;25.65;;;16.02;;